createdAt,value
2023-05-19T00:00:56.794Z,100.00
2023-05-19T00:06:03.489Z,100.00
2023-05-19T00:11:09.760Z,100.00
2023-05-19T00:16:15.033Z,100.00
2023-05-19T00:21:19.247Z,100.00
2023-05-19T00:26:24.645Z,100.00
2023-05-19T00:31:35.089Z,100.00
2023-05-19T00:36:39.125Z,100.00
2023-05-19T00:41:44.601Z,100.00
2023-05-19T00:46:48.561Z,100.00
2023-05-19T00:51:53.028Z,100.00
2023-05-19T00:56:58.767Z,100.00
2023-05-19T01:02:02.996Z,100.00
2023-05-19T01:07:07.051Z,100.00
2023-05-19T01:12:14.315Z,100.00
2023-05-19T01:17:27.705Z,100.00
2023-05-19T01:23:00.503Z,100.00
2023-05-19T01:28:46.298Z,100.00
2023-05-19T01:33:54.493Z,100.00
2023-05-19T01:39:00.524Z,100.00
2023-05-19T01:44:04.848Z,100.00
2023-05-19T01:49:10.525Z,100.00
2023-05-19T01:54:14.565Z,100.00
2023-05-19T01:59:30.379Z,100.00
2023-05-19T02:04:44.847Z,100.00
2023-05-19T02:09:56.363Z,100.00
2023-05-19T02:15:04.827Z,100.00
2023-05-19T02:20:12.236Z,100.00
2023-05-19T02:25:16.444Z,100.00
2023-05-19T02:30:21.121Z,100.00
2023-05-19T02:35:26.455Z,100.00
2023-05-19T02:40:30.829Z,100.00
2023-05-19T02:45:35.506Z,100.00
2023-05-19T02:50:43.083Z,100.00
2023-05-19T02:55:47.075Z,100.00
2023-05-19T03:00:51.533Z,100.00
2023-05-19T03:05:57.189Z,100.00
2023-05-19T03:11:01.218Z,100.00
2023-05-19T03:16:05.324Z,100.00
2023-05-19T03:21:12.417Z,100.00
2023-05-19T03:26:16.333Z,100.00
2023-05-19T03:31:20.624Z,100.00
2023-05-19T03:36:26.271Z,100.00
2023-05-19T03:41:30.555Z,100.00
2023-05-19T03:46:35.075Z,100.00
2023-05-19T03:51:47.158Z,100.00
2023-05-19T03:57:23.695Z,100.00
2023-05-19T04:02:27.917Z,100.00
2023-05-19T04:07:33.414Z,100.00
2023-05-19T04:12:37.323Z,100.00
2023-05-19T04:17:41.986Z,100.00
2023-05-19T04:22:48.028Z,100.00
2023-05-19T04:27:53.003Z,100.00
2023-05-19T04:32:58.266Z,100.00
2023-05-19T04:38:04.274Z,100.00
2023-05-19T04:43:11.467Z,100.00
2023-05-19T04:48:17.061Z,100.00
2023-05-19T04:53:22.832Z,100.00
2023-05-19T04:58:27.569Z,100.00
2023-05-19T05:03:33.369Z,100.00
2023-05-19T05:08:40.607Z,100.00
2023-05-19T05:13:45.406Z,100.00
2023-05-19T05:18:51.284Z,100.00
2023-05-19T05:23:57.782Z,100.00
2023-05-19T05:29:10.261Z,100.00
2023-05-19T05:34:15.144Z,100.00
2023-05-19T05:39:23.600Z,100.00
2023-05-19T05:44:27.832Z,100.00
2023-05-19T05:49:36.612Z,100.00
2023-05-19T05:54:42.275Z,100.00
2023-05-19T05:59:47.303Z,100.00
2023-05-19T06:04:54.249Z,100.00
2023-05-19T06:10:00.449Z,100.00
2023-05-19T06:15:08.616Z,100.00
2023-05-19T06:20:27.043Z,100.00
2023-05-19T06:25:33.130Z,100.00
2023-05-19T06:30:37.867Z,100.00
2023-05-19T06:35:53.167Z,99.30
2023-05-19T06:40:59.341Z,97.73
2023-05-19T06:46:03.372Z,95.63
2023-05-19T06:51:10.257Z,94.24
2023-05-19T06:56:18.639Z,84.60
2023-05-19T07:01:22.851Z,83.51
2023-05-19T07:06:31.466Z,89.14
2023-05-19T07:11:37.011Z,88.42
2023-05-19T07:16:43.049Z,81.30
2023-05-19T07:21:48.140Z,83.43
2023-05-19T07:26:54.354Z,77.36
2023-05-19T07:31:58.428Z,66.80
2023-05-19T07:37:03.464Z,69.88
2023-05-19T07:42:08.840Z,65.85
2023-05-19T07:47:12.805Z,59.40
2023-05-19T07:52:18.341Z,60.16
2023-05-19T07:57:23.686Z,57.32
2023-05-19T08:02:29.501Z,59.39
2023-05-19T08:07:33.483Z,54.64
2023-05-19T08:12:38.888Z,60.00
2023-05-19T08:17:42.969Z,60.37
2023-05-19T08:22:46.976Z,65.08
2023-05-19T08:27:55.926Z,58.04
2023-05-19T08:32:59.824Z,52.98
2023-05-19T08:38:03.829Z,57.58
2023-05-19T08:43:10.024Z,60.28
2023-05-19T08:48:14.998Z,60.21
2023-05-19T08:58:40.115Z,61.78
2023-05-19T09:03:44.833Z,52.63
2023-05-19T09:08:48.712Z,59.64
2023-05-19T09:13:54.244Z,62.25
2023-05-19T09:19:00.670Z,68.45
2023-05-19T09:24:08.798Z,62.57
2023-05-19T09:29:15.103Z,52.85
2023-05-19T09:34:19.232Z,52.96
2023-05-19T09:39:25.282Z,53.07
2023-05-19T09:44:30.873Z,58.27
2023-05-19T09:49:34.698Z,53.44
2023-05-19T09:54:39.558Z,57.76
2023-05-19T10:05:17.473Z,63.76
2023-05-19T10:10:23.494Z,62.82
2023-05-19T10:15:29.108Z,60.86
2023-05-19T10:20:35.300Z,62.11
2023-05-19T10:25:39.990Z,68.27
2023-05-19T10:30:48.701Z,61.19
2023-05-19T10:36:25.542Z,71.06
2023-05-19T10:41:34.617Z,65.86
2023-05-19T10:46:41.302Z,65.19
2023-05-19T10:51:46.793Z,60.53
2023-05-19T10:56:50.682Z,65.97
2023-05-19T11:01:56.269Z,63.59
2023-05-19T11:07:03.689Z,61.68
2023-05-19T11:12:08.244Z,56.48
2023-05-19T11:17:17.064Z,54.47
2023-05-19T11:22:24.740Z,46.39
2023-05-19T11:27:31.920Z,45.06
2023-05-19T11:32:39.343Z,54.58
2023-05-19T11:37:43.984Z,44.91
2023-05-19T11:42:49.551Z,51.86
2023-05-19T11:48:02.447Z,45.84
2023-05-19T11:53:10.911Z,51.37
2023-05-19T11:58:14.966Z,49.97
2023-05-19T12:03:22.949Z,51.38
2023-05-19T12:08:31.018Z,54.17
2023-05-19T12:13:35.027Z,56.80
2023-05-19T12:18:40.989Z,59.00
2023-05-19T12:23:45.238Z,60.69
2023-05-19T12:28:49.141Z,61.35
2023-05-19T12:33:54.371Z,63.69
2023-05-19T12:38:58.561Z,68.03
2023-05-19T12:44:02.350Z,63.95
2023-05-19T12:49:11.078Z,68.88
2023-05-19T12:54:14.990Z,68.10
2023-05-19T12:59:37.481Z,68.01
2023-05-19T13:04:44.270Z,63.27
2023-05-19T13:09:50.102Z,65.41
2023-05-19T13:14:55.632Z,55.54
2023-05-19T13:20:01.256Z,55.79
2023-05-19T13:25:09.086Z,55.86
2023-05-19T13:30:16.327Z,58.70
2023-05-19T13:35:21.708Z,62.51
2023-05-19T13:40:28.212Z,54.53
2023-05-19T13:45:34.156Z,58.32
2023-05-19T13:50:39.544Z,60.13
2023-05-19T13:55:43.554Z,56.53
2023-05-19T14:00:47.526Z,64.48
2023-05-19T14:05:53.267Z,69.16
2023-05-19T14:10:57.247Z,64.02
2023-05-19T14:16:01.363Z,57.58
2023-05-19T14:21:07.290Z,61.83
2023-05-19T14:26:11.418Z,68.36
2023-05-19T14:31:18.298Z,59.15
2023-05-19T14:36:23.739Z,66.42
2023-05-19T14:41:30.021Z,61.92
2023-05-19T14:46:34.020Z,70.60
2023-05-19T14:51:39.397Z,65.26
2023-05-19T14:56:43.337Z,70.86
2023-05-19T15:01:47.401Z,84.89
2023-05-19T15:07:08.708Z,82.59
2023-05-19T15:12:13.528Z,64.56
2023-05-19T15:17:17.604Z,75.30
2023-05-19T15:22:22.964Z,75.84
2023-05-19T15:27:26.897Z,82.02
2023-05-19T15:32:33.784Z,88.43
2023-05-19T15:37:42.366Z,88.73
2023-05-19T15:42:47.118Z,96.20
2023-05-19T15:47:51.387Z,100.00
2023-05-19T15:52:56.806Z,100.00
2023-05-19T15:58:00.741Z,100.00
2023-05-19T16:03:04.911Z,100.00
2023-05-19T16:08:10.307Z,100.00
2023-05-19T16:13:20.242Z,100.00
2023-05-19T16:18:24.210Z,100.00
2023-05-19T16:23:29.854Z,100.00
2023-05-19T16:28:33.840Z,100.00
2023-05-19T16:33:37.885Z,100.00
2023-05-19T16:38:43.468Z,100.00
2023-05-19T16:43:47.501Z,100.00
2023-05-19T16:48:51.536Z,100.00
2023-05-19T16:53:56.846Z,100.00
2023-05-19T16:59:00.901Z,100.00
2023-05-19T17:04:04.880Z,100.00
2023-05-19T17:14:38.188Z,100.00
2023-05-19T17:19:42.146Z,100.00
2023-05-19T17:24:47.512Z,100.00
2023-05-19T17:29:51.468Z,100.00
2023-05-19T17:34:55.809Z,100.00
2023-05-19T17:40:01.165Z,100.00
2023-05-19T17:45:07.648Z,100.00
2023-05-19T17:50:13.891Z,100.00
2023-05-19T17:55:20.708Z,100.00
2023-05-19T18:00:28.259Z,100.00
2023-05-19T18:05:34.461Z,100.00
2023-05-19T18:10:42.424Z,100.00
2023-05-19T18:15:46.485Z,100.00
2023-05-19T18:20:52.453Z,100.00
2023-05-19T18:25:57.867Z,100.00
2023-05-19T18:31:01.883Z,100.00
2023-05-19T18:36:06.489Z,100.00
2023-05-19T18:41:11.852Z,100.00
2023-05-19T18:46:17.585Z,100.00
2023-05-19T18:51:21.851Z,100.00
2023-05-19T18:56:28.175Z,100.00
2023-05-19T19:01:34.469Z,100.00
2023-05-19T19:06:41.946Z,100.00
2023-05-19T19:11:49.714Z,100.00
2023-05-19T19:16:56.713Z,100.00
2023-05-19T19:22:00.870Z,100.00
2023-05-19T19:27:06.797Z,100.00
2023-05-19T19:32:11.307Z,100.00
2023-05-19T19:37:16.620Z,100.00
2023-05-19T19:42:24.847Z,100.00
2023-05-19T19:47:28.866Z,100.00
2023-05-19T19:52:33.162Z,100.00
2023-05-19T19:57:38.489Z,100.00
2023-05-19T20:03:02.160Z,100.00
2023-05-19T20:08:06.858Z,100.00
2023-05-19T20:13:12.219Z,100.00
2023-05-19T20:18:16.242Z,100.00
2023-05-19T20:23:20.259Z,100.00
2023-05-19T20:28:28.428Z,100.00
2023-05-19T20:33:32.470Z,100.00
2023-05-19T20:38:36.505Z,100.00
2023-05-19T20:43:41.926Z,100.00
2023-05-19T20:49:11.347Z,100.00
2023-05-19T20:54:15.311Z,100.00
2023-05-19T20:59:20.765Z,100.00
2023-05-19T21:04:24.855Z,100.00
2023-05-19T21:09:28.767Z,100.00
2023-05-19T21:14:34.067Z,100.00
2023-05-19T21:19:38.168Z,100.00
2023-05-19T21:24:42.290Z,100.00
2023-05-19T21:29:47.700Z,100.00
2023-05-19T21:34:54.682Z,100.00
2023-05-19T21:39:58.824Z,100.00
2023-05-19T21:45:04.296Z,100.00
2023-05-19T21:50:11.101Z,100.00
2023-05-19T21:55:15.099Z,100.00
2023-05-19T22:00:20.557Z,100.00
2023-05-19T22:05:24.560Z,100.00
2023-05-19T22:10:28.664Z,100.00
2023-05-19T22:15:34.022Z,100.00
2023-05-19T22:20:37.964Z,100.00
2023-05-19T22:25:43.174Z,100.00
2023-05-19T22:30:48.541Z,100.00
2023-05-19T22:35:52.627Z,100.00
2023-05-19T22:40:56.613Z,100.00
2023-05-19T22:46:01.985Z,100.00
2023-05-19T22:51:06.190Z,100.00
2023-05-19T22:56:10.374Z,100.00
2023-05-19T23:01:17.173Z,100.00
2023-05-19T23:06:21.222Z,100.00
2023-05-19T23:11:25.234Z,100.00
2023-05-19T23:16:30.607Z,100.00
2023-05-19T23:21:36.528Z,100.00
2023-05-19T23:26:40.531Z,100.00
2023-05-19T23:31:45.996Z,100.00
2023-05-19T23:36:50.068Z,100.00
2023-05-19T23:41:54.018Z,100.00
2023-05-19T23:46:59.407Z,100.00
2023-05-19T23:52:03.357Z,100.00
2023-05-19T23:57:07.398Z,100.00
